sensor_id;sensor_type;location;lat;lon;timestamp;P1;durP1;ratioP1;P2;durP2;ratioP2
36787;SDS011;22738;45.560;9.434;2023-03-01T00:01:54;45.30;;;18.63;;
36787;SDS011;22738;45.560;9.434;2023-03-01T00:08:37;44.63;;;20.90;;
36787;SDS011;22738;45.560;9.434;2023-03-01T00:15:18;46.35;;;21.13;;
36787;SDS011;22738;45.560;9.434;2023-03-01T00:21:59;44.75;;;19.80;;
36787;SDS011;22738;45.560;9.434;2023-03-01T00:28:42;40.03;;;19.65;;
36787;SDS011;22738;45.560;9.434;2023-03-01T00:35:24;45.70;;;21.13;;
36787;SDS011;22738;45.560;9.434;2023-03-01T00:42:06;46.47;;;19.85;;
36787;SDS011;22738;45.560;9.434;2023-03-01T00:48:49;39.60;;;19.48;;
36787;SDS011;22738;45.560;9.434;2023-03-01T00:55:30;39.22;;;18.25;;
36787;SDS011;22738;45.560;9.434;2023-03-01T01:02:13;48.08;;;18.45;;
36787;SDS011;22738;45.560;9.434;2023-03-01T01:08:54;40.47;;;18.33;;
36787;SDS011;22738;45.560;9.434;2023-03-01T01:15:36;40.63;;;17.33;;
36787;SDS011;22738;45.560;9.434;2023-03-01T01:22:17;34.22;;;17.35;;
36787;SDS011;22738;45.560;9.434;2023-03-01T01:28:58;39.97;;;18.67;;
36787;SDS011;22738;45.560;9.434;2023-03-01T01:35:40;38.87;;;16.57;;
36787;SDS011;22738;45.560;9.434;2023-03-01T01:42:21;33.38;;;15.45;;
36787;SDS011;22738;45.560;9.434;2023-03-01T01:49:46;40.30;;;17.30;;
36787;SDS011;22738;45.560;9.434;2023-03-01T01:56:16;31.30;;;15.10;;
36787;SDS011;22738;45.560;9.434;2023-03-01T02:02:59;35.22;;;17.00;;
36787;SDS011;22738;45.560;9.434;2023-03-01T02:09:45;38.42;;;16.55;;
36787;SDS011;22738;45.560;9.434;2023-03-01T02:16:28;33.28;;;15.68;;
36787;SDS011;22738;45.560;9.434;2023-03-01T02:23:10;33.65;;;15.25;;
36787;SDS011;22738;45.560;9.434;2023-03-01T02:29:51;35.60;;;15.70;;
36787;SDS011;22738;45.560;9.434;2023-03-01T02:36:39;38.10;;;15.95;;
36787;SDS011;22738;45.560;9.434;2023-03-01T02:43:26;38.60;;;16.85;;
36787;SDS011;22738;45.560;9.434;2023-03-01T02:57:14;39.22;;;16.92;;
36787;SDS011;22738;45.560;9.434;2023-03-01T03:03:57;36.80;;;16.45;;
36787;SDS011;22738;45.560;9.434;2023-03-01T03:10:40;27.77;;;13.93;;
36787;SDS011;22738;45.560;9.434;2023-03-01T03:17:23;34.92;;;15.50;;
36787;SDS011;22738;45.560;9.434;2023-03-01T03:24:04;26.52;;;13.45;;
36787;SDS011;22738;45.560;9.434;2023-03-01T03:30:45;35.88;;;15.00;;
36787;SDS011;22738;45.560;9.434;2023-03-01T03:37:27;41.22;;;15.70;;
36787;SDS011;22738;45.560;9.434;2023-03-01T03:44:27;35.67;;;15.98;;
36787;SDS011;22738;45.560;9.434;2023-03-01T03:51:11;35.78;;;15.82;;
36787;SDS011;22738;45.560;9.434;2023-03-01T03:57:57;37.53;;;16.77;;
36787;SDS011;22738;45.560;9.434;2023-03-01T04:04:42;35.88;;;14.75;;
36787;SDS011;22738;45.560;9.434;2023-03-01T04:11:23;31.25;;;14.00;;
36787;SDS011;22738;45.560;9.434;2023-03-01T04:18:08;30.92;;;13.80;;
36787;SDS011;22738;45.560;9.434;2023-03-01T04:31:31;33.40;;;15.70;;
36787;SDS011;22738;45.560;9.434;2023-03-01T04:38:13;32.60;;;14.32;;
36787;SDS011;22738;45.560;9.434;2023-03-01T04:44:54;32.15;;;14.13;;
36787;SDS011;22738;45.560;9.434;2023-03-01T04:51:35;40.03;;;17.45;;
36787;SDS011;22738;45.560;9.434;2023-03-01T04:58:16;38.17;;;15.88;;
36787;SDS011;22738;45.560;9.434;2023-03-01T05:04:57;39.53;;;16.85;;
36787;SDS011;22738;45.560;9.434;2023-03-01T05:11:38;37.35;;;15.98;;
36787;SDS011;22738;45.560;9.434;2023-03-01T05:18:20;41.50;;;16.05;;
36787;SDS011;22738;45.560;9.434;2023-03-01T05:25:01;39.15;;;16.05;;
36787;SDS011;22738;45.560;9.434;2023-03-01T05:31:43;35.33;;;16.50;;
36787;SDS011;22738;45.560;9.434;2023-03-01T05:38:24;38.75;;;16.30;;
36787;SDS011;22738;45.560;9.434;2023-03-01T05:45:05;38.47;;;16.15;;
36787;SDS011;22738;45.560;9.434;2023-03-01T05:51:50;39.63;;;16.45;;
36787;SDS011;22738;45.560;9.434;2023-03-01T05:58:32;35.17;;;16.85;;
36787;SDS011;22738;45.560;9.434;2023-03-01T06:05:14;37.45;;;14.70;;
36787;SDS011;22738;45.560;9.434;2023-03-01T06:11:55;39.50;;;15.55;;
36787;SDS011;22738;45.560;9.434;2023-03-01T06:18:37;37.10;;;16.27;;
36787;SDS011;22738;45.560;9.434;2023-03-01T06:25:19;36.33;;;16.70;;
36787;SDS011;22738;45.560;9.434;2023-03-01T06:32:02;44.03;;;18.27;;
36787;SDS011;22738;45.560;9.434;2023-03-01T06:38:44;36.92;;;16.55;;
36787;SDS011;22738;45.560;9.434;2023-03-01T06:45:25;34.05;;;14.82;;
36787;SDS011;22738;45.560;9.434;2023-03-01T06:52:06;39.63;;;16.45;;
36787;SDS011;22738;45.560;9.434;2023-03-01T06:58:47;41.80;;;16.27;;
36787;SDS011;22738;45.560;9.434;2023-03-01T07:05:28;36.90;;;14.85;;
36787;SDS011;22738;45.560;9.434;2023-03-01T07:12:10;27.77;;;13.32;;
36787;SDS011;22738;45.560;9.434;2023-03-01T07:18:51;31.63;;;13.25;;
36787;SDS011;22738;45.560;9.434;2023-03-01T07:25:32;37.83;;;16.13;;
36787;SDS011;22738;45.560;9.434;2023-03-01T07:32:13;36.05;;;15.98;;
36787;SDS011;22738;45.560;9.434;2023-03-01T07:38:54;36.30;;;15.55;;
36787;SDS011;22738;45.560;9.434;2023-03-01T07:45:36;34.13;;;15.15;;
36787;SDS011;22738;45.560;9.434;2023-03-01T07:52:17;40.75;;;16.90;;
36787;SDS011;22738;45.560;9.434;2023-03-01T07:58:58;41.47;;;18.02;;
36787;SDS011;22738;45.560;9.434;2023-03-01T08:05:40;39.33;;;18.42;;
36787;SDS011;22738;45.560;9.434;2023-03-01T08:12:21;37.08;;;16.85;;
36787;SDS011;22738;45.560;9.434;2023-03-01T08:19:07;37.20;;;16.58;;
36787;SDS011;22738;45.560;9.434;2023-03-01T08:25:51;40.00;;;16.25;;
36787;SDS011;22738;45.560;9.434;2023-03-01T08:32:37;41.50;;;16.38;;
36787;SDS011;22738;45.560;9.434;2023-03-01T08:39:19;41.10;;;16.38;;
36787;SDS011;22738;45.560;9.434;2023-03-01T08:46:01;31.38;;;14.60;;
36787;SDS011;22738;45.560;9.434;2023-03-01T08:52:42;37.55;;;15.98;;
36787;SDS011;22738;45.560;9.434;2023-03-01T08:59:23;41.75;;;17.02;;
36787;SDS011;22738;45.560;9.434;2023-03-01T09:06:06;29.40;;;13.03;;
36787;SDS011;22738;45.560;9.434;2023-03-01T09:12:48;33.72;;;12.68;;
36787;SDS011;22738;45.560;9.434;2023-03-01T09:19:29;19.33;;;10.18;;
36787;SDS011;22738;45.560;9.434;2023-03-01T09:26:11;22.45;;;10.85;;
36787;SDS011;22738;45.560;9.434;2023-03-01T09:33:02;23.85;;;10.90;;
36787;SDS011;22738;45.560;9.434;2023-03-01T09:39:43;24.05;;;10.98;;
36787;SDS011;22738;45.560;9.434;2023-03-01T09:46:24;31.38;;;12.88;;
36787;SDS011;22738;45.560;9.434;2023-03-01T09:53:09;25.27;;;12.40;;
36787;SDS011;22738;45.560;9.434;2023-03-01T10:07:00;32.20;;;14.07;;
36787;SDS011;22738;45.560;9.434;2023-03-01T10:21:20;33.17;;;14.85;;
36787;SDS011;22738;45.560;9.434;2023-03-01T10:27:51;31.02;;;13.88;;
36787;SDS011;22738;45.560;9.434;2023-03-01T10:34:40;37.65;;;15.70;;
36787;SDS011;22738;45.560;9.434;2023-03-01T10:41:22;36.88;;;15.60;;
36787;SDS011;22738;45.560;9.434;2023-03-01T10:48:19;31.65;;;15.60;;
36787;SDS011;22738;45.560;9.434;2023-03-01T11:02:01;30.10;;;14.75;;
36787;SDS011;22738;45.560;9.434;2023-03-01T11:08:54;29.67;;;14.30;;
36787;SDS011;22738;45.560;9.434;2023-03-01T11:15:35;33.20;;;16.27;;
36787;SDS011;22738;45.560;9.434;2023-03-01T11:22:18;34.22;;;16.83;;
36787;SDS011;22738;45.560;9.434;2023-03-01T11:29:02;33.17;;;13.98;;
36787;SDS011;22738;45.560;9.434;2023-03-01T11:35:57;33.00;;;15.45;;
36787;SDS011;22738;45.560;9.434;2023-03-01T11:50:14;31.48;;;13.80;;
36787;SDS011;22738;45.560;9.434;2023-03-01T11:57:11;30.25;;;13.60;;
36787;SDS011;22738;45.560;9.434;2023-03-01T12:32:39;35.65;;;14.88;;
36787;SDS011;22738;45.560;9.434;2023-03-01T12:39:55;35.17;;;14.98;;
36787;SDS011;22738;45.560;9.434;2023-03-01T12:53:44;34.33;;;14.43;;
36787;SDS011;22738;45.560;9.434;2023-03-01T13:00:31;29.70;;;12.93;;
36787;SDS011;22738;45.560;9.434;2023-03-01T13:21:05;28.67;;;14.27;;
36787;SDS011;22738;45.560;9.434;2023-03-01T13:27:46;33.88;;;15.60;;
36787;SDS011;22738;45.560;9.434;2023-03-01T13:34:41;36.72;;;16.73;;
36787;SDS011;22738;45.560;9.434;2023-03-01T13:42:25;35.10;;;15.75;;
36787;SDS011;22738;45.560;9.434;2023-03-01T13:48:30;39.78;;;15.88;;
36787;SDS011;22738;45.560;9.434;2023-03-01T14:01:57;36.60;;;16.30;;
36787;SDS011;22738;45.560;9.434;2023-03-01T14:08:40;32.63;;;15.45;;
36787;SDS011;22738;45.560;9.434;2023-03-01T14:15:32;38.10;;;16.75;;
36787;SDS011;22738;45.560;9.434;2023-03-01T14:22:20;38.90;;;16.60;;
36787;SDS011;22738;45.560;9.434;2023-03-01T14:29:03;37.13;;;16.90;;
36787;SDS011;22738;45.560;9.434;2023-03-01T14:35:51;35.38;;;15.63;;
36787;SDS011;22738;45.560;9.434;2023-03-01T14:42:34;40.50;;;17.20;;
36787;SDS011;22738;45.560;9.434;2023-03-01T14:49:19;46.43;;;18.37;;
36787;SDS011;22738;45.560;9.434;2023-03-01T14:56:02;42.88;;;19.15;;
36787;SDS011;22738;45.560;9.434;2023-03-01T15:02:43;49.30;;;20.92;;
36787;SDS011;22738;45.560;9.434;2023-03-01T15:09:26;47.43;;;20.43;;
36787;SDS011;22738;45.560;9.434;2023-03-01T15:22:48;47.58;;;20.67;;
36787;SDS011;22738;45.560;9.434;2023-03-01T15:29:30;50.42;;;21.60;;
36787;SDS011;22738;45.560;9.434;2023-03-01T15:43:36;48.35;;;19.42;;
36787;SDS011;22738;45.560;9.434;2023-03-01T15:50:36;43.97;;;17.98;;
36787;SDS011;22738;45.560;9.434;2023-03-01T15:57:20;37.10;;;17.80;;
36787;SDS011;22738;45.560;9.434;2023-03-01T16:04:01;44.63;;;18.40;;
36787;SDS011;22738;45.560;9.434;2023-03-01T16:10:42;39.85;;;17.27;;
36787;SDS011;22738;45.560;9.434;2023-03-01T16:17:26;39.83;;;17.42;;
36787;SDS011;22738;45.560;9.434;2023-03-01T16:24:07;32.28;;;16.30;;
36787;SDS011;22738;45.560;9.434;2023-03-01T16:30:49;42.03;;;18.92;;
36787;SDS011;22738;45.560;9.434;2023-03-01T16:37:33;38.22;;;17.80;;
36787;SDS011;22738;45.560;9.434;2023-03-01T16:44:14;41.80;;;17.80;;
36787;SDS011;22738;45.560;9.434;2023-03-01T16:50:56;43.40;;;17.15;;
36787;SDS011;22738;45.560;9.434;2023-03-01T16:57:38;38.30;;;16.67;;
36787;SDS011;22738;45.560;9.434;2023-03-01T17:04:21;34.47;;;15.00;;
36787;SDS011;22738;45.560;9.434;2023-03-01T17:11:09;42.50;;;16.23;;
36787;SDS011;22738;45.560;9.434;2023-03-01T17:17:54;42.45;;;17.27;;
36787;SDS011;22738;45.560;9.434;2023-03-01T17:24:37;44.70;;;19.33;;
36787;SDS011;22738;45.560;9.434;2023-03-01T17:31:19;38.60;;;17.90;;
36787;SDS011;22738;45.560;9.434;2023-03-01T17:38:00;43.00;;;16.67;;
36787;SDS011;22738;45.560;9.434;2023-03-01T17:44:41;44.50;;;18.75;;
36787;SDS011;22738;45.560;9.434;2023-03-01T17:51:22;39.55;;;16.77;;
36787;SDS011;22738;45.560;9.434;2023-03-01T17:58:03;41.45;;;18.95;;
36787;SDS011;22738;45.560;9.434;2023-03-01T18:04:45;44.57;;;18.47;;
36787;SDS011;22738;45.560;9.434;2023-03-01T18:11:28;43.53;;;18.42;;
36787;SDS011;22738;45.560;9.434;2023-03-01T18:18:09;42.50;;;17.77;;
36787;SDS011;22738;45.560;9.434;2023-03-01T18:24:50;45.85;;;18.17;;
36787;SDS011;22738;45.560;9.434;2023-03-01T18:31:31;42.97;;;17.95;;
36787;SDS011;22738;45.560;9.434;2023-03-01T18:38:13;32.70;;;13.57;;
36787;SDS011;22738;45.560;9.434;2023-03-01T18:44:54;38.97;;;16.48;;
36787;SDS011;22738;45.560;9.434;2023-03-01T18:51:35;38.88;;;17.50;;
36787;SDS011;22738;45.560;9.434;2023-03-01T18:58:16;38.75;;;18.35;;
36787;SDS011;22738;45.560;9.434;2023-03-01T19:04:57;36.35;;;16.20;;
36787;SDS011;22738;45.560;9.434;2023-03-01T19:11:38;29.98;;;14.88;;
36787;SDS011;22738;45.560;9.434;2023-03-01T19:18:20;35.67;;;16.10;;
36787;SDS011;22738;45.560;9.434;2023-03-01T19:25:01;30.20;;;15.07;;
36787;SDS011;22738;45.560;9.434;2023-03-01T19:31:46;40.00;;;16.27;;
36787;SDS011;22738;45.560;9.434;2023-03-01T19:38:28;27.95;;;14.38;;
36787;SDS011;22738;45.560;9.434;2023-03-01T19:45:12;29.58;;;13.77;;
36787;SDS011;22738;45.560;9.434;2023-03-01T19:51:54;30.02;;;14.35;;
36787;SDS011;22738;45.560;9.434;2023-03-01T19:58:35;30.33;;;14.85;;
36787;SDS011;22738;45.560;9.434;2023-03-01T20:05:17;28.50;;;14.77;;
36787;SDS011;22738;45.560;9.434;2023-03-01T20:11:58;29.52;;;14.82;;
36787;SDS011;22738;45.560;9.434;2023-03-01T20:18:40;34.03;;;15.13;;
36787;SDS011;22738;45.560;9.434;2023-03-01T20:25:22;27.02;;;13.45;;
36787;SDS011;22738;45.560;9.434;2023-03-01T20:32:03;26.60;;;14.40;;
36787;SDS011;22738;45.560;9.434;2023-03-01T20:38:46;24.73;;;13.63;;
36787;SDS011;22738;45.560;9.434;2023-03-01T20:45:27;28.83;;;13.63;;
36787;SDS011;22738;45.560;9.434;2023-03-01T20:52:08;22.50;;;11.93;;
36787;SDS011;22738;45.560;9.434;2023-03-01T20:58:49;23.48;;;12.57;;
36787;SDS011;22738;45.560;9.434;2023-03-01T21:05:33;23.45;;;12.48;;
36787;SDS011;22738;45.560;9.434;2023-03-01T21:12:16;29.42;;;14.75;;
36787;SDS011;22738;45.560;9.434;2023-03-01T21:18:59;29.30;;;14.70;;
36787;SDS011;22738;45.560;9.434;2023-03-01T21:25:41;32.58;;;14.10;;
36787;SDS011;22738;45.560;9.434;2023-03-01T21:32:23;31.70;;;15.05;;
36787;SDS011;22738;45.560;9.434;2023-03-01T21:39:05;28.23;;;13.55;;
36787;SDS011;22738;45.560;9.434;2023-03-01T21:45:46;30.35;;;15.23;;
36787;SDS011;22738;45.560;9.434;2023-03-01T21:52:29;31.45;;;14.77;;
36787;SDS011;22738;45.560;9.434;2023-03-01T21:59:12;30.23;;;14.10;;
36787;SDS011;22738;45.560;9.434;2023-03-01T22:06:00;33.20;;;14.88;;
36787;SDS011;22738;45.560;9.434;2023-03-01T22:12:42;34.95;;;15.38;;
36787;SDS011;22738;45.560;9.434;2023-03-01T22:19:23;26.88;;;13.07;;
36787;SDS011;22738;45.560;9.434;2023-03-01T22:26:04;27.50;;;13.75;;
36787;SDS011;22738;45.560;9.434;2023-03-01T22:32:45;33.30;;;15.25;;
36787;SDS011;22738;45.560;9.434;2023-03-01T22:39:26;32.03;;;13.85;;
36787;SDS011;22738;45.560;9.434;2023-03-01T22:46:13;29.15;;;14.73;;
36787;SDS011;22738;45.560;9.434;2023-03-01T22:52:57;33.20;;;14.18;;
36787;SDS011;22738;45.560;9.434;2023-03-01T22:59:40;28.70;;;14.60;;
36787;SDS011;22738;45.560;9.434;2023-03-01T23:06:22;33.90;;;15.77;;
36787;SDS011;22738;45.560;9.434;2023-03-01T23:13:03;29.45;;;14.05;;
36787;SDS011;22738;45.560;9.434;2023-03-01T23:19:44;34.50;;;15.52;;
36787;SDS011;22738;45.560;9.434;2023-03-01T23:26:25;35.75;;;15.63;;
36787;SDS011;22738;45.560;9.434;2023-03-01T23:33:07;36.92;;;17.33;;
36787;SDS011;22738;45.560;9.434;2023-03-01T23:39:48;36.25;;;15.40;;
36787;SDS011;22738;45.560;9.434;2023-03-01T23:46:31;30.10;;;15.10;;
36787;SDS011;22738;45.560;9.434;2023-03-01T23:53:15;32.30;;;14.85;;
